createdAt,value
2024-05-09T00:00:35.771Z,10.64
2024-05-09T00:03:01.744Z,10.60
2024-05-09T00:05:32.523Z,10.40
2024-05-09T00:08:03.296Z,10.40
2024-05-09T00:10:37.428Z,10.26
2024-05-09T00:13:06.644Z,10.28
2024-05-09T00:15:37.568Z,10.25
2024-05-09T00:18:08.992Z,10.18
2024-05-09T00:20:41.202Z,10.27
2024-05-09T00:23:14.401Z,10.20
2024-05-09T00:25:45.175Z,9.98
2024-05-09T00:28:15.852Z,10.02
2024-05-09T00:30:46.494Z,10.00
2024-05-09T00:33:17.393Z,9.95
2024-05-09T00:35:48.211Z,9.86
2024-05-09T00:38:18.701Z,9.76
2024-05-09T00:40:49.291Z,9.82
2024-05-09T00:43:19.876Z,9.83
2024-05-09T00:45:50.395Z,9.86
2024-05-09T00:48:21.756Z,9.80
2024-05-09T00:50:54.259Z,9.86
2024-05-09T00:53:26.031Z,9.92
2024-05-09T00:55:58.154Z,9.92
2024-05-09T00:58:30.414Z,9.89
2024-05-09T01:01:02.401Z,9.89
2024-05-09T01:03:33.305Z,9.89
2024-05-09T01:06:04.070Z,9.86
2024-05-09T01:08:34.758Z,9.82
2024-05-09T01:11:05.543Z,9.76
2024-05-09T01:13:36.031Z,9.70
2024-05-09T01:16:07.049Z,9.78
2024-05-09T01:18:37.598Z,9.67
2024-05-09T01:21:09.426Z,9.68
2024-05-09T01:23:40.056Z,9.61
2024-05-09T01:26:10.482Z,9.56
2024-05-09T01:28:40.999Z,9.58
2024-05-09T01:31:13.300Z,9.50
2024-05-09T01:33:44.183Z,9.58
2024-05-09T01:36:15.366Z,9.50
2024-05-09T01:38:45.997Z,9.50
2024-05-09T01:41:16.584Z,9.44
2024-05-09T01:43:47.129Z,9.50
2024-05-09T01:46:19.282Z,9.35
2024-05-09T01:48:49.956Z,9.40
2024-05-09T01:51:20.469Z,9.22
2024-05-09T01:53:52.882Z,9.18
2024-05-09T01:56:23.414Z,9.15
2024-05-09T01:58:53.896Z,9.06
2024-05-09T02:01:24.433Z,9.05
2024-05-09T02:03:55.163Z,9.11
2024-05-09T02:06:25.771Z,9.06
2024-05-09T02:08:56.229Z,9.08
2024-05-09T02:11:27.006Z,9.10
2024-05-09T02:13:57.656Z,8.99
2024-05-09T02:16:28.140Z,8.89
2024-05-09T02:18:58.762Z,8.92
2024-05-09T02:21:29.249Z,8.80
2024-05-09T02:23:59.705Z,8.79
2024-05-09T02:26:30.347Z,8.90
2024-05-09T02:29:00.951Z,8.92
2024-05-09T02:31:31.426Z,9.00
2024-05-09T02:34:02.131Z,8.79
2024-05-09T02:36:32.889Z,8.72
2024-05-09T02:39:03.403Z,8.66
2024-05-09T02:41:34.256Z,8.62
2024-05-09T02:44:05.051Z,8.63
2024-05-09T02:46:35.477Z,8.62
2024-05-09T02:49:06.164Z,8.56
2024-05-09T02:51:36.870Z,8.50
2024-05-09T02:54:07.750Z,8.32
2024-05-09T02:56:38.362Z,8.37
2024-05-09T02:59:08.993Z,8.36
2024-05-09T03:01:39.554Z,8.26
2024-05-09T03:04:10.105Z,8.30
2024-05-09T03:06:44.225Z,8.22
2024-05-09T03:09:14.877Z,8.15
2024-05-09T03:11:45.832Z,8.14
2024-05-09T03:14:19.753Z,8.19
2024-05-09T03:16:50.277Z,8.20
2024-05-09T03:19:21.276Z,8.12
2024-05-09T03:21:52.025Z,8.16
2024-05-09T03:24:22.602Z,8.08
2024-05-09T03:26:53.164Z,8.02
2024-05-09T03:29:23.719Z,8.08
2024-05-09T03:31:54.393Z,7.97
2024-05-09T03:34:25.086Z,8.00
2024-05-09T03:36:55.627Z,8.00
2024-05-09T03:39:26.135Z,7.98
2024-05-09T03:41:56.774Z,7.90
2024-05-09T03:44:27.389Z,7.98
2024-05-09T03:46:58.032Z,7.94
2024-05-09T03:49:28.723Z,7.96
2024-05-09T03:52:00.835Z,7.94
2024-05-09T03:54:32.182Z,7.96
2024-05-09T03:57:02.906Z,8.02
2024-05-09T03:59:33.408Z,8.14
2024-05-09T04:02:05.594Z,8.11
2024-05-09T04:04:36.258Z,8.20
2024-05-09T04:07:06.744Z,8.09
2024-05-09T04:09:37.119Z,8.08
2024-05-09T04:12:09.086Z,8.12
2024-05-09T04:14:39.724Z,8.24
2024-05-09T04:17:10.292Z,8.24
2024-05-09T04:19:40.924Z,8.35
2024-05-09T04:22:11.516Z,8.26
2024-05-09T04:24:42.049Z,8.27
2024-05-09T04:27:12.647Z,8.23
2024-05-09T04:29:43.178Z,8.36
2024-05-09T04:32:13.785Z,8.30
2024-05-09T04:34:44.414Z,8.37
2024-05-09T04:37:14.925Z,8.40
2024-05-09T04:39:45.399Z,8.67
2024-05-09T04:42:15.933Z,8.82
2024-05-09T04:44:46.490Z,8.66
2024-05-09T04:47:17.041Z,8.80
2024-05-09T04:49:47.593Z,8.85
2024-05-09T04:52:18.084Z,8.91
2024-05-09T04:54:48.622Z,9.11
2024-05-09T04:57:19.188Z,9.65
2024-05-09T04:59:51.213Z,12.15
2024-05-09T05:02:21.793Z,14.74
2024-05-09T05:04:52.460Z,17.84
2024-05-09T05:07:22.997Z,19.04
2024-05-09T05:09:53.492Z,20.48
2024-05-09T05:12:41.432Z,19.70
2024-05-09T05:15:12.090Z,18.83
2024-05-09T05:17:42.730Z,20.66
2024-05-09T05:20:17.859Z,21.94
2024-05-09T05:22:45.578Z,22.60
2024-05-09T05:25:16.078Z,22.40
2024-05-09T05:27:46.590Z,19.88
2024-05-09T05:30:21.499Z,19.69
2024-05-09T05:32:49.403Z,20.30
2024-05-09T05:35:20.128Z,21.28
2024-05-09T05:37:50.638Z,18.47
2024-05-09T05:40:28.506Z,21.48
2024-05-09T05:42:53.551Z,20.70
2024-05-09T05:45:24.099Z,23.32
2024-05-09T05:47:55.483Z,24.73
2024-05-09T05:50:32.609Z,25.19
2024-05-09T05:52:58.776Z,25.60
2024-05-09T05:55:29.240Z,26.25
2024-05-09T05:58:00.489Z,26.86
2024-05-09T06:00:37.860Z,27.31
2024-05-09T06:03:03.353Z,27.78
2024-05-09T06:05:34.999Z,24.40
2024-05-09T06:08:05.974Z,24.92
2024-05-09T06:10:39.760Z,27.89
2024-05-09T06:13:14.023Z,27.82
2024-05-09T06:15:45.046Z,28.98
2024-05-09T06:18:16.030Z,29.56
2024-05-09T06:20:46.742Z,29.88
2024-05-09T06:23:17.347Z,29.92
2024-05-09T06:25:47.931Z,30.39
2024-05-09T06:28:18.488Z,28.91
2024-05-09T06:30:49.009Z,30.15
2024-05-09T06:33:19.785Z,29.89
2024-05-09T06:35:50.489Z,25.98
2024-05-09T06:38:21.152Z,26.81
2024-05-09T06:40:51.658Z,25.85
2024-05-09T06:43:22.460Z,21.76
2024-05-09T06:45:53.204Z,20.48
2024-05-09T06:48:47.794Z,19.47
2024-05-09T06:51:20.221Z,18.49
2024-05-09T06:53:50.641Z,17.50
2024-05-09T06:56:21.184Z,17.06
2024-05-09T06:58:51.643Z,16.48
2024-05-09T07:01:22.170Z,16.56
2024-05-09T07:03:52.725Z,15.95
2024-05-09T07:06:23.355Z,15.73
2024-05-09T07:08:53.855Z,15.19
2024-05-09T07:11:24.742Z,14.81
2024-05-09T07:13:55.243Z,14.77
2024-05-09T07:16:25.808Z,14.52
2024-05-09T07:18:56.459Z,14.18
2024-05-09T07:21:27.231Z,14.26
2024-05-09T07:23:57.836Z,14.11
2024-05-09T07:26:28.377Z,14.08
2024-05-09T07:28:58.992Z,14.10
2024-05-09T07:31:30.568Z,14.28
2024-05-09T07:34:01.164Z,14.02
2024-05-09T07:36:31.630Z,14.13
2024-05-09T07:39:02.154Z,14.01
2024-05-09T07:41:32.940Z,14.12
2024-05-09T07:44:03.776Z,14.06
2024-05-09T07:54:12.977Z,14.40
2024-05-09T07:56:43.815Z,14.53
2024-05-09T07:59:14.708Z,14.59
2024-05-09T08:01:45.421Z,14.55
2024-05-09T08:04:16.223Z,14.62
2024-05-09T08:06:59.184Z,14.59
2024-05-09T08:09:31.290Z,14.60
2024-05-09T08:12:01.785Z,14.76
2024-05-09T08:14:32.530Z,14.90
2024-05-09T08:17:03.297Z,14.88
2024-05-09T08:19:34.798Z,14.68
2024-05-09T08:22:07.468Z,14.88
2024-05-09T08:24:37.978Z,14.96
2024-05-09T08:27:08.600Z,14.88
2024-05-09T08:29:39.751Z,15.02
2024-05-09T08:32:12.031Z,14.98
2024-05-09T08:34:42.802Z,15.14
2024-05-09T08:37:21.416Z,15.31
2024-05-09T08:39:45.657Z,15.36
2024-05-09T08:45:14.225Z,15.16
2024-05-09T08:47:47.177Z,15.26
2024-05-09T08:50:28.895Z,15.18
2024-05-09T08:52:53.809Z,15.34
2024-05-09T08:55:25.517Z,15.21
2024-05-09T08:57:56.628Z,15.20
2024-05-09T09:00:34.183Z,15.38
2024-05-09T09:03:02.624Z,15.60
2024-05-09T09:05:37.206Z,15.55
2024-05-09T09:08:09.065Z,15.76
2024-05-09T09:10:43.452Z,15.94
2024-05-09T09:13:14.386Z,15.93
2024-05-09T09:15:56.330Z,15.80
2024-05-09T09:18:34.341Z,15.71
2024-05-09T09:21:08.569Z,15.83
2024-05-09T09:23:40.930Z,15.74
2024-05-09T09:26:14.536Z,15.75
2024-05-09T09:28:49.579Z,15.92
2024-05-09T09:31:21.754Z,16.14
2024-05-09T09:33:52.950Z,16.16
2024-05-09T09:36:23.580Z,16.31
2024-05-09T09:38:55.346Z,16.31
2024-05-09T09:41:29.130Z,16.17
2024-05-09T09:44:01.351Z,15.88
2024-05-09T09:46:34.106Z,16.19
2024-05-09T09:49:09.453Z,16.18
2024-05-09T09:51:49.092Z,16.40
2024-05-09T09:54:21.951Z,16.36
2024-05-09T09:56:55.364Z,16.52
2024-05-09T09:59:26.936Z,16.53
2024-05-09T10:01:58.388Z,16.48
2024-05-09T10:04:29.086Z,16.41
2024-05-09T10:07:02.088Z,16.53
2024-05-09T10:09:33.962Z,16.85
2024-05-09T10:12:11.624Z,16.80
2024-05-09T10:14:54.253Z,16.79
2024-05-09T10:17:25.043Z,16.76
2024-05-09T10:20:14.928Z,17.00
2024-05-09T10:22:51.866Z,16.92
2024-05-09T10:25:23.547Z,16.97
2024-05-09T10:27:57.682Z,17.14
2024-05-09T10:30:34.140Z,17.12
2024-05-09T10:33:01.410Z,17.32
2024-05-09T10:35:32.775Z,17.40
2024-05-09T10:38:06.314Z,17.26
2024-05-09T10:40:39.228Z,17.25
2024-05-09T10:43:12.753Z,17.20
2024-05-09T10:45:43.314Z,17.31
2024-05-09T10:48:13.827Z,17.40
2024-05-09T10:50:45.900Z,17.43
2024-05-09T10:53:17.127Z,17.42
2024-05-09T10:55:57.968Z,17.46
2024-05-09T10:58:30.524Z,17.37
2024-05-09T11:01:05.421Z,17.52
2024-05-09T11:03:33.902Z,17.55
2024-05-09T11:06:06.327Z,17.52
2024-05-09T11:08:38.211Z,17.52
2024-05-09T11:11:10.330Z,17.71
2024-05-09T11:13:41.989Z,17.58
2024-05-09T11:16:21.044Z,17.46
2024-05-09T11:18:59.483Z,17.38
2024-05-09T11:21:30.158Z,17.72
2024-05-09T11:24:01.074Z,17.38
2024-05-09T11:26:33.443Z,17.56
2024-05-09T11:29:03.900Z,17.65
2024-05-09T11:31:37.000Z,17.66
2024-05-09T11:34:07.593Z,17.78
2024-05-09T11:36:38.266Z,17.94
2024-05-09T11:39:08.876Z,17.89
2024-05-09T11:41:39.700Z,17.78
2024-05-09T11:44:10.160Z,17.98
2024-05-09T11:46:41.770Z,18.22
2024-05-09T11:49:12.788Z,18.30
2024-05-09T11:51:43.612Z,18.45
2024-05-09T11:54:16.466Z,18.68
2024-05-09T11:56:48.562Z,18.62
2024-05-09T11:59:19.056Z,18.63
2024-05-09T12:01:49.692Z,18.48
2024-05-09T12:04:20.464Z,18.41
2024-05-09T12:06:51.144Z,18.45
2024-05-09T12:09:21.890Z,18.23
2024-05-09T12:11:52.482Z,18.14
2024-05-09T12:14:22.956Z,18.09
2024-05-09T12:16:53.595Z,18.30
2024-05-09T12:19:24.077Z,18.52
2024-05-09T12:21:54.734Z,18.76
2024-05-09T12:24:25.214Z,18.50
2024-05-09T12:26:55.820Z,18.58
2024-05-09T12:29:26.458Z,18.50
2024-05-09T12:31:57.002Z,18.77
2024-05-09T12:34:27.604Z,18.82
2024-05-09T12:36:58.273Z,18.83
2024-05-09T12:39:28.875Z,18.99
2024-05-09T12:41:59.403Z,18.79
2024-05-09T12:44:29.924Z,18.77
2024-05-09T12:47:01.189Z,18.66
2024-05-09T12:49:32.053Z,18.57
2024-05-09T12:52:03.476Z,18.54
2024-05-09T12:54:34.908Z,18.52
2024-05-09T12:57:05.758Z,18.46
2024-05-09T12:59:36.667Z,18.34
2024-05-09T13:02:07.501Z,18.43
2024-05-09T13:04:38.262Z,18.54
2024-05-09T13:07:09.366Z,18.79
2024-05-09T13:09:39.953Z,18.82
2024-05-09T13:12:10.434Z,19.03
2024-05-09T13:14:40.865Z,18.97
2024-05-09T13:17:11.448Z,19.16
2024-05-09T13:19:41.916Z,19.09
2024-05-09T13:22:12.543Z,19.04
2024-05-09T13:24:45.850Z,18.96
2024-05-09T13:27:16.420Z,18.82
2024-05-09T13:29:46.921Z,18.72
2024-05-09T13:32:17.456Z,18.72
2024-05-09T13:34:47.965Z,18.84
2024-05-09T13:37:18.598Z,18.90
2024-05-09T13:39:49.343Z,18.92
2024-05-09T13:42:19.906Z,19.08
2024-05-09T13:44:50.699Z,18.96
2024-05-09T13:47:22.115Z,18.96
2024-05-09T13:49:52.721Z,18.91
2024-05-09T13:52:23.340Z,18.96
2024-05-09T13:54:55.440Z,19.06
2024-05-09T13:57:26.650Z,19.02
2024-05-09T13:59:57.243Z,19.16
2024-05-09T14:02:27.955Z,19.08
2024-05-09T14:04:58.817Z,19.02
2024-05-09T14:07:29.342Z,19.07
2024-05-09T14:10:00.163Z,19.01
2024-05-09T14:12:30.808Z,19.04
2024-05-09T14:15:01.245Z,19.20
2024-05-09T14:17:32.276Z,19.31
2024-05-09T14:20:03.144Z,19.22
2024-05-09T14:22:35.565Z,19.32
2024-05-09T14:25:07.232Z,19.44
2024-05-09T14:27:38.119Z,19.48
2024-05-09T14:30:15.058Z,19.28
2024-05-09T14:32:41.915Z,19.20
2024-05-09T14:35:12.492Z,19.23
2024-05-09T14:37:43.123Z,19.22
2024-05-09T14:40:29.825Z,19.34
2024-05-09T14:42:47.297Z,19.25
2024-05-09T14:45:18.009Z,19.39
2024-05-09T14:47:48.721Z,19.68
2024-05-09T14:50:27.851Z,19.46
2024-05-09T14:52:52.958Z,19.52
2024-05-09T14:55:24.808Z,19.37
2024-05-09T14:57:55.562Z,19.34
2024-05-09T15:00:33.063Z,19.28
2024-05-09T15:02:59.078Z,19.16
2024-05-09T15:05:29.857Z,19.38
2024-05-09T15:08:00.563Z,19.14
2024-05-09T15:10:35.236Z,19.31
2024-05-09T15:13:06.595Z,19.26
2024-05-09T15:15:37.822Z,19.43
2024-05-09T15:18:08.587Z,19.60
2024-05-09T15:20:40.254Z,19.52
2024-05-09T15:23:10.881Z,19.62
2024-05-09T15:25:41.733Z,19.33
2024-05-09T15:28:12.500Z,19.53
2024-05-09T15:30:46.310Z,19.50
2024-05-09T15:33:15.668Z,19.40
2024-05-09T15:35:47.526Z,19.37
2024-05-09T15:38:18.814Z,19.55
2024-05-09T15:40:49.564Z,19.66
2024-05-09T15:43:20.181Z,19.35
2024-05-09T15:45:51.039Z,19.27
2024-05-09T15:48:21.838Z,19.26
2024-05-09T15:50:52.298Z,19.52
2024-05-09T15:53:22.896Z,19.41
2024-05-09T15:55:53.524Z,19.23
2024-05-09T15:58:24.265Z,19.13
2024-05-09T16:00:55.108Z,19.18
2024-05-09T16:03:25.925Z,19.05
2024-05-09T16:05:58.369Z,19.26
2024-05-09T16:08:29.044Z,19.27
2024-05-09T16:10:59.688Z,19.30
2024-05-09T16:13:30.414Z,19.14
2024-05-09T16:16:01.249Z,19.28
2024-05-09T16:18:31.916Z,19.30
2024-05-09T16:21:02.505Z,19.37
2024-05-09T16:23:33.115Z,19.30
2024-05-09T16:26:03.765Z,19.12
2024-05-09T16:28:34.372Z,19.14
2024-05-09T16:31:05.088Z,19.24
2024-05-09T16:33:36.149Z,19.00
2024-05-09T16:36:07.317Z,19.02
2024-05-09T16:38:39.896Z,18.88
2024-05-09T16:41:10.324Z,18.98
2024-05-09T16:43:40.815Z,18.96
2024-05-09T16:46:11.620Z,19.02
2024-05-09T16:48:44.007Z,18.95
2024-05-09T16:51:14.711Z,18.88
2024-05-09T16:53:45.293Z,18.98
2024-05-09T16:56:15.907Z,18.88
2024-05-09T16:58:46.616Z,18.94
2024-05-09T17:01:17.196Z,18.91
2024-05-09T17:03:47.961Z,19.00
2024-05-09T17:06:20.194Z,19.07
2024-05-09T17:08:50.746Z,18.88
2024-05-09T17:11:21.297Z,18.69
2024-05-09T17:13:51.797Z,18.64
2024-05-09T17:16:22.500Z,18.79
2024-05-09T17:18:53.316Z,18.60
2024-05-09T17:21:23.864Z,18.61
2024-05-09T17:23:55.741Z,18.44
2024-05-09T17:26:26.286Z,18.40
2024-05-09T17:28:57.442Z,18.32
2024-05-09T17:31:28.014Z,18.31
2024-05-09T17:33:58.991Z,18.22
2024-05-09T17:36:29.657Z,18.28
2024-05-09T17:39:00.334Z,18.28
2024-05-09T17:41:30.789Z,18.16
2024-05-09T17:44:03.198Z,18.15
2024-05-09T17:46:34.139Z,18.10
2024-05-09T17:49:04.998Z,18.18
2024-05-09T17:51:38.282Z,18.03
2024-05-09T17:54:08.824Z,17.99
2024-05-09T17:56:39.340Z,17.88
2024-05-09T17:59:11.563Z,17.82
2024-05-09T18:01:42.189Z,17.76
2024-05-09T18:04:12.996Z,17.73
2024-05-09T18:06:43.692Z,17.58
2024-05-09T18:09:14.323Z,17.50
2024-05-09T18:11:45.689Z,17.46
2024-05-09T18:14:16.336Z,17.36
2024-05-09T18:16:47.143Z,17.30
2024-05-09T18:19:17.882Z,17.24
2024-05-09T18:21:49.408Z,17.12
2024-05-09T18:24:24.716Z,17.04
2024-05-09T18:26:55.367Z,17.02
2024-05-09T18:29:25.997Z,17.00
2024-05-09T18:31:56.655Z,17.01
2024-05-09T18:34:27.322Z,16.99
2024-05-09T18:36:59.255Z,16.86
2024-05-09T18:39:30.427Z,16.77
2024-05-09T18:42:01.773Z,16.69
2024-05-09T18:44:32.661Z,16.64
2024-05-09T18:47:04.018Z,16.54
2024-05-09T18:49:34.753Z,16.43
2024-05-09T18:52:05.659Z,16.31
2024-05-09T18:54:36.280Z,16.24
2024-05-09T18:57:06.892Z,16.15
2024-05-09T18:59:37.549Z,16.14
2024-05-09T19:02:08.307Z,16.12
2024-05-09T19:04:39.158Z,16.13
2024-05-09T19:07:10.087Z,16.10
2024-05-09T19:09:41.186Z,16.00
2024-05-09T19:12:11.759Z,15.95
2024-05-09T19:14:42.296Z,15.96
2024-05-09T19:17:13.085Z,15.87
2024-05-09T19:19:43.690Z,15.81
2024-05-09T19:22:14.247Z,15.78
2024-05-09T19:24:44.769Z,15.76
2024-05-09T19:27:15.386Z,15.81
2024-05-09T19:29:46.063Z,15.66
2024-05-09T19:32:16.575Z,15.61
2024-05-09T19:34:47.059Z,15.54
2024-05-09T19:37:17.559Z,15.55
2024-05-09T19:39:48.048Z,15.55
2024-05-09T19:42:19.136Z,15.52
2024-05-09T19:44:49.615Z,15.50
2024-05-09T19:47:20.201Z,15.39
2024-05-09T19:49:50.797Z,15.47
2024-05-09T19:52:21.358Z,15.56
2024-05-09T19:54:52.045Z,15.53
2024-05-09T19:57:22.538Z,15.53
2024-05-09T19:59:53.041Z,15.58
2024-05-09T20:02:23.652Z,15.57
2024-05-09T20:04:54.649Z,15.56
2024-05-09T20:07:25.283Z,15.51
2024-05-09T20:09:57.240Z,15.49
2024-05-09T20:12:27.953Z,15.51
2024-05-09T20:14:58.615Z,15.46
2024-05-09T20:17:29.287Z,15.34
2024-05-09T20:20:00.209Z,15.51
2024-05-09T20:22:32.380Z,15.34
2024-05-09T20:25:02.887Z,15.30
2024-05-09T20:27:33.556Z,15.24
2024-05-09T20:30:09.646Z,15.24
2024-05-09T20:32:37.144Z,15.15
2024-05-09T20:35:08.665Z,15.07
2024-05-09T20:37:40.883Z,15.04
2024-05-09T20:40:18.424Z,15.05
2024-05-09T20:42:46.221Z,14.98
2024-05-09T20:45:16.881Z,14.94
2024-05-09T20:47:47.440Z,14.91
2024-05-09T20:50:27.994Z,14.85
2024-05-09T20:52:50.995Z,14.79
2024-05-09T20:55:21.594Z,14.70
2024-05-09T20:57:53.214Z,14.60
2024-05-09T21:00:30.289Z,14.76
2024-05-09T21:02:56.241Z,14.75
2024-05-09T21:05:26.956Z,14.64
2024-05-09T21:07:57.602Z,14.69
2024-05-09T21:10:32.660Z,14.70
2024-05-09T21:13:00.378Z,14.61
2024-05-09T21:15:31.177Z,14.53
2024-05-09T21:18:02.210Z,14.54
2024-05-09T21:20:34.367Z,14.64
2024-05-09T21:23:05.529Z,14.52
2024-05-09T21:25:36.186Z,14.48
2024-05-09T21:28:07.094Z,14.44
2024-05-09T21:30:41.904Z,14.38
2024-05-09T21:33:11.635Z,14.54
2024-05-09T21:35:44.418Z,14.50
2024-05-09T21:38:16.112Z,14.46
2024-05-09T21:40:46.792Z,14.40
2024-05-09T21:43:17.685Z,14.35
2024-05-09T21:45:48.565Z,14.45
2024-05-09T21:48:19.553Z,14.33
2024-05-09T21:50:57.564Z,14.25
2024-05-09T21:53:24.674Z,14.22
2024-05-09T21:55:55.252Z,14.24
2024-05-09T21:58:26.019Z,14.25
2024-05-09T22:00:56.743Z,14.13
2024-05-09T22:03:27.428Z,14.24
2024-05-09T22:05:58.164Z,14.24
2024-05-09T22:08:28.641Z,14.22
2024-05-09T22:10:59.215Z,14.20
2024-05-09T22:13:29.748Z,14.16
2024-05-09T22:16:00.422Z,14.26
2024-05-09T22:18:31.175Z,14.23
2024-05-09T22:21:03.289Z,14.12
2024-05-09T22:23:33.796Z,14.08
2024-05-09T22:26:04.386Z,14.15
2024-05-09T22:28:34.950Z,14.14
2024-05-09T22:31:05.542Z,14.14
2024-05-09T22:33:36.258Z,14.14
2024-05-09T22:36:08.653Z,14.12
2024-05-09T22:38:40.761Z,14.12
2024-05-09T22:41:11.347Z,14.00
2024-05-09T22:43:41.857Z,14.02
2024-05-09T22:46:12.456Z,13.92
2024-05-09T22:48:43.332Z,13.94
2024-05-09T22:51:14.079Z,13.87
2024-05-09T22:53:45.024Z,13.88
2024-05-09T22:56:15.777Z,13.93
2024-05-09T22:58:46.468Z,13.95
2024-05-09T23:01:17.241Z,13.92
2024-05-09T23:03:48.428Z,13.94
2024-05-09T23:06:18.956Z,13.90
2024-05-09T23:08:49.406Z,13.82
2024-05-09T23:11:20.026Z,13.75
2024-05-09T23:13:50.474Z,13.70
2024-05-09T23:16:21.187Z,13.67
2024-05-09T23:18:51.930Z,13.66
2024-05-09T23:21:22.768Z,13.60
2024-05-09T23:23:53.349Z,13.54
2024-05-09T23:26:23.827Z,13.51
2024-05-09T23:28:54.288Z,13.54
2024-05-09T23:31:25.098Z,13.50
2024-05-09T23:33:55.949Z,13.63
2024-05-09T23:36:29.108Z,13.51
2024-05-09T23:38:59.750Z,13.54
2024-05-09T23:41:30.245Z,13.58
2024-05-09T23:44:00.873Z,13.62
2024-05-09T23:46:31.383Z,13.59
2024-05-09T23:49:02.192Z,13.61
2024-05-09T23:51:32.769Z,13.52
2024-05-09T23:54:03.512Z,13.54
2024-05-09T23:56:34.036Z,13.54
2024-05-09T23:59:04.833Z,13.52
